createdAt,value
2022-11-16T00:00:22.432Z,98688.47
2022-11-16T00:01:26.825Z,98691.72
2022-11-16T00:02:28.501Z,98689.09
2022-11-16T00:03:31.580Z,98685.84
2022-11-16T00:04:33.337Z,98686.28
2022-11-16T00:05:35.028Z,98695.59
2022-11-16T00:06:36.667Z,98691.16
2022-11-16T00:07:38.482Z,98690.91
2022-11-16T00:08:43.216Z,98694.59
2022-11-16T00:09:44.905Z,98697.22
2022-11-16T00:10:46.572Z,98695.59
2022-11-16T00:11:54.189Z,98697.41
2022-11-16T00:12:55.880Z,98689.72
2022-11-16T00:13:57.558Z,98690.53
2022-11-16T00:14:59.230Z,98686.28
2022-11-16T00:16:00.998Z,98681.22
2022-11-16T00:17:03.371Z,98694.16
2022-11-16T00:18:05.050Z,98678.78
2022-11-16T00:19:07.874Z,98677.16
2022-11-16T00:20:10.147Z,98674.06
2022-11-16T00:21:11.868Z,98667.78
2022-11-16T00:22:13.515Z,98670.41
2022-11-16T00:23:15.161Z,98668.59
2022-11-16T00:24:18.580Z,98665.97
2022-11-16T00:25:20.255Z,98656.22
2022-11-16T00:26:24.578Z,98656.47
2022-11-16T00:27:26.272Z,98655.41
2022-11-16T00:28:28.608Z,98657.22
2022-11-16T00:29:30.321Z,98663.09
2022-11-16T00:30:31.981Z,98659.25
2022-11-16T00:31:33.632Z,98648.50
2022-11-16T00:32:35.312Z,98649.75
2022-11-16T00:33:37.392Z,98651.38
2022-11-16T00:34:39.868Z,98645.88
2022-11-16T00:35:41.990Z,98643.25
2022-11-16T00:36:44.446Z,98642.44
2022-11-16T00:37:46.173Z,98637.38
2022-11-16T00:38:47.928Z,98640.63
2022-11-16T00:39:49.588Z,98634.56
2022-11-16T00:40:51.264Z,98641.25
2022-11-16T00:41:52.984Z,98639.00
2022-11-16T00:42:54.622Z,98633.75
2022-11-16T00:43:56.577Z,98630.50
2022-11-16T00:44:58.248Z,98635.38
2022-11-16T00:45:59.933Z,98646.69
2022-11-16T00:47:01.616Z,98636.75
2022-11-16T00:48:03.361Z,98641.00
2022-11-16T00:49:05.818Z,98643.44
2022-11-16T00:50:07.734Z,98641.00
2022-11-16T00:51:09.475Z,98637.56
2022-11-16T00:52:11.128Z,98642.63
2022-11-16T00:53:14.451Z,98634.53
2022-11-16T00:54:16.143Z,98640.00
2022-11-16T00:55:17.932Z,98641.00
2022-11-16T00:56:19.586Z,98636.00
2022-11-16T00:57:21.302Z,98637.00
2022-11-16T00:58:23.284Z,98630.50
2022-11-16T00:59:24.973Z,98633.19
2022-11-16T01:00:26.949Z,98641.06
2022-11-16T01:01:29.000Z,98638.44
2022-11-16T01:02:30.735Z,98636.44
2022-11-16T01:03:33.031Z,98634.59
2022-11-16T01:04:34.737Z,98633.38
2022-11-16T01:05:36.665Z,98632.31
2022-11-16T01:06:38.312Z,98622.41
2022-11-16T01:07:41.240Z,98635.75
2022-11-16T01:08:44.159Z,98637.38
2022-11-16T01:09:45.842Z,98632.13
2022-11-16T01:10:47.504Z,98630.31
2022-11-16T01:12:07.707Z,98635.53
2022-11-16T01:13:10.956Z,98629.66
2022-11-16T01:14:12.705Z,98619.72
2022-11-16T01:15:14.591Z,98618.34
2022-11-16T01:16:18.088Z,98627.44
2022-11-16T01:17:19.721Z,98616.75
2022-11-16T01:18:21.362Z,98615.56
2022-11-16T01:19:23.118Z,98616.38
2022-11-16T01:20:27.500Z,98612.75
2022-11-16T01:21:29.187Z,98609.13
2022-11-16T01:22:30.905Z,98615.19
2022-11-16T01:23:32.647Z,98621.25
2022-11-16T01:24:34.474Z,98611.13
2022-11-16T01:25:36.141Z,98617.00
2022-11-16T01:26:37.908Z,98605.69
2022-11-16T01:27:40.223Z,98615.56
2022-11-16T01:28:42.066Z,98615.75
2022-11-16T01:29:43.963Z,98620.63
2022-11-16T01:30:48.915Z,98608.28
2022-11-16T01:31:50.670Z,98617.19
2022-11-16T01:32:52.381Z,98621.19
2022-11-16T01:33:54.920Z,98614.94
2022-11-16T01:34:56.579Z,98603.03
2022-11-16T01:35:58.355Z,98610.09
2022-11-16T01:37:00.011Z,98610.50
2022-11-16T01:38:01.695Z,98610.31
2022-11-16T01:39:05.613Z,98614.56
2022-11-16T01:40:08.173Z,98614.56
2022-11-16T01:41:14.351Z,98610.91
2022-11-16T01:42:21.676Z,98620.81
2022-11-16T01:43:25.649Z,98613.13
2022-11-16T01:44:33.341Z,98613.13
2022-11-16T01:45:39.584Z,98602.22
2022-11-16T01:46:42.300Z,98607.47
2022-11-16T01:47:44.392Z,98599.78
2022-11-16T01:48:47.122Z,98603.41
2022-11-16T01:50:09.105Z,98605.41
2022-11-16T01:51:11.047Z,98605.59
2022-11-16T01:52:17.176Z,98611.28
2022-11-16T01:53:19.311Z,98604.97
2022-11-16T01:54:21.173Z,98603.41
2022-11-16T01:55:23.797Z,98611.91
2022-11-16T01:56:26.218Z,98575.81
2022-11-16T01:57:41.026Z,98601.16
2022-11-16T01:58:43.049Z,98607.41
2022-11-16T01:59:48.055Z,98602.16
2022-11-16T02:00:49.917Z,98614.28
2022-11-16T02:01:51.906Z,98603.78
2022-11-16T02:02:53.857Z,98604.41
2022-11-16T02:03:55.635Z,98602.59
2022-11-16T02:04:58.712Z,98588.41
2022-11-16T02:06:15.165Z,98598.97
2022-11-16T02:08:03.172Z,98599.97
2022-11-16T02:09:41.520Z,98584.16
2022-11-16T02:11:21.447Z,98591.81
2022-11-16T02:12:57.266Z,98595.63
2022-11-16T02:14:16.457Z,98596.00
2022-11-16T02:15:42.215Z,98588.47
2022-11-16T02:17:01.781Z,98593.94
2022-11-16T02:18:18.277Z,98596.56
2022-11-16T02:19:53.406Z,98592.69
2022-11-16T02:21:19.420Z,98589.44
2022-11-16T02:22:27.395Z,98588.63
2022-11-16T02:23:31.954Z,98577.13
2022-11-16T02:24:39.666Z,98585.81
2022-11-16T02:26:06.285Z,98575.69
2022-11-16T02:27:10.917Z,98583.00
2022-11-16T02:28:44.451Z,98583.00
2022-11-16T02:29:50.250Z,98574.78
2022-11-16T02:30:55.054Z,98568.50
2022-11-16T02:32:06.150Z,98563.25
2022-11-16T02:33:12.333Z,98581.25
2022-11-16T02:34:18.077Z,98572.56
2022-11-16T02:35:22.912Z,98563.66
2022-11-16T02:36:25.839Z,98562.47
2022-11-16T02:37:31.887Z,98570.53
2022-11-16T02:38:38.720Z,98550.44
2022-11-16T02:39:43.358Z,98566.03
2022-11-16T02:40:50.748Z,98557.53
2022-11-16T02:41:54.631Z,98549.66
2022-11-16T02:43:11.761Z,98548.47
2022-11-16T02:44:19.644Z,98555.72
2022-11-16T02:45:26.338Z,98545.19
2022-11-16T02:46:36.800Z,98555.09
2022-11-16T02:47:41.506Z,98546.63
2022-11-16T02:48:48.129Z,98545.59
2022-11-16T02:49:56.843Z,98543.38
2022-11-16T02:50:58.581Z,98548.81
2022-11-16T02:52:01.086Z,98539.31
2022-11-16T02:53:03.583Z,98545.75
2022-11-16T02:54:12.975Z,98534.13
2022-11-16T02:55:14.922Z,98537.56
2022-11-16T02:56:16.715Z,98533.78
2022-11-16T02:57:26.995Z,98539.63
2022-11-16T02:58:29.626Z,98525.09
2022-11-16T02:59:36.870Z,98526.34
2022-11-16T03:00:52.165Z,98532.00
2022-11-16T03:02:08.137Z,98512.59
2022-11-16T03:03:35.130Z,98525.13
2022-11-16T03:04:43.621Z,98525.13
2022-11-16T03:05:51.257Z,98524.75
2022-11-16T03:06:56.496Z,98529.63
2022-11-16T03:08:19.465Z,98528.81
2022-11-16T03:09:27.945Z,98515.88
2022-11-16T03:10:49.252Z,98529.19
2022-11-16T03:12:00.729Z,98509.81
2022-11-16T03:13:03.822Z,98506.56
2022-11-16T03:14:15.106Z,98500.66
2022-11-16T03:15:17.237Z,98503.44
2022-11-16T03:16:50.593Z,98495.41
2022-11-16T03:17:52.871Z,98483.38
2022-11-16T03:18:56.962Z,98494.19
2022-11-16T03:20:07.780Z,98496.81
2022-11-16T03:21:28.635Z,98473.53
2022-11-16T03:22:39.523Z,98497.97
2022-11-16T03:23:41.868Z,98477.75
2022-11-16T03:24:43.657Z,98494.41
2022-11-16T03:25:50.787Z,98490.63
2022-11-16T03:27:05.649Z,98498.91
2022-11-16T03:28:20.200Z,98498.34
2022-11-16T03:29:30.885Z,98510.09
2022-11-16T03:30:41.329Z,98510.91
2022-11-16T03:31:50.669Z,98511.94
2022-11-16T03:33:08.377Z,98510.13
2022-11-16T03:34:16.544Z,98506.50
2022-11-16T03:35:23.328Z,98504.25
2022-11-16T03:36:40.849Z,98500.19
2022-11-16T03:37:46.104Z,98495.16
2022-11-16T03:38:50.894Z,98489.47
2022-11-16T03:39:53.988Z,98500.06
2022-11-16T03:41:03.204Z,98488.75
2022-11-16T03:42:10.833Z,98492.50
2022-11-16T03:43:14.493Z,98498.72
2022-11-16T03:44:18.926Z,98494.13
2022-11-16T03:45:21.143Z,98497.78
2022-11-16T03:46:22.889Z,98499.03
2022-11-16T03:47:24.582Z,98500.84
2022-11-16T03:48:32.269Z,98506.63
2022-11-16T03:49:34.191Z,98504.00
2022-11-16T03:50:35.907Z,98505.28
2022-11-16T03:51:37.918Z,98502.22
2022-11-16T03:52:39.636Z,98530.66
2022-11-16T03:53:41.329Z,98513.31
2022-11-16T03:54:43.148Z,98512.13
2022-11-16T03:55:49.584Z,98516.63
2022-11-16T03:56:51.775Z,98519.44
2022-11-16T03:57:53.424Z,98516.63
2022-11-16T03:58:55.285Z,98515.81
2022-11-16T03:59:57.137Z,98508.56
2022-11-16T04:00:58.931Z,98505.41
2022-11-16T04:02:00.653Z,98493.59
2022-11-16T04:03:02.371Z,98503.16
2022-11-16T04:04:04.133Z,98494.47
2022-11-16T04:05:24.323Z,98495.72
2022-11-16T04:06:44.394Z,98480.72
2022-11-16T04:08:06.532Z,98491.53
2022-11-16T04:09:30.039Z,98482.63
2022-11-16T04:10:49.980Z,98486.09
2022-11-16T04:12:09.965Z,98480.44
2022-11-16T04:13:33.841Z,98475.78
2022-11-16T04:14:54.130Z,98473.38
2022-11-16T04:16:14.057Z,98479.22
2022-11-16T04:17:36.492Z,98473.38
2022-11-16T04:18:57.069Z,98469.66
2022-11-16T04:20:17.119Z,98458.53
2022-11-16T04:22:09.690Z,98459.53
2022-11-16T04:23:33.169Z,98449.25
2022-11-16T04:24:38.474Z,98446.63
2022-11-16T04:25:41.937Z,98452.50
2022-11-16T04:27:06.864Z,98436.69
2022-11-16T04:28:14.756Z,98441.19
2022-11-16T04:29:16.687Z,98444.00
2022-11-16T04:30:18.520Z,98430.22
2022-11-16T04:31:38.945Z,98436.66
2022-11-16T04:32:59.542Z,98438.50
2022-11-16T04:34:20.097Z,98440.13
2022-11-16T04:35:33.621Z,98435.88
2022-11-16T04:36:54.036Z,98434.06
2022-11-16T04:37:58.426Z,98443.94
2022-11-16T04:39:00.284Z,98432.22
2022-11-16T04:40:02.193Z,98432.03
2022-11-16T04:41:03.860Z,98428.78
2022-11-16T04:42:14.773Z,98436.47
2022-11-16T04:43:16.521Z,98440.72
2022-11-16T04:44:18.915Z,98444.91
2022-11-16T04:45:40.328Z,98443.94
2022-11-16T04:47:00.839Z,98443.34
2022-11-16T04:48:02.951Z,98443.94
2022-11-16T04:49:04.648Z,98431.59
2022-11-16T04:50:06.595Z,98438.69
2022-11-16T04:51:08.270Z,98441.31
2022-11-16T04:52:10.272Z,98444.38
2022-11-16T04:53:12.563Z,98444.38
2022-11-16T04:54:14.313Z,98438.13
2022-11-16T04:55:15.989Z,98433.69
2022-11-16T04:56:17.699Z,98436.38
2022-11-16T04:57:19.346Z,98427.72
2022-11-16T04:58:21.046Z,98436.00
2022-11-16T04:59:22.769Z,98424.66
2022-11-16T05:00:24.551Z,98426.09
2022-11-16T05:01:44.944Z,98439.56
2022-11-16T05:02:46.669Z,98432.69
2022-11-16T05:03:48.331Z,98431.53
2022-11-16T05:04:50.055Z,98432.97
2022-11-16T05:05:51.751Z,98430.94
2022-11-16T05:06:53.628Z,98428.31
2022-11-16T05:07:55.430Z,98429.94
2022-11-16T05:08:57.073Z,98428.56
2022-11-16T05:09:58.765Z,98426.31
2022-11-16T05:11:00.423Z,98431.81
2022-11-16T05:12:02.060Z,98427.38
2022-11-16T05:13:03.728Z,98429.19
2022-11-16T05:14:06.376Z,98427.13
2022-11-16T05:15:09.183Z,98421.44
2022-11-16T05:16:10.833Z,98418.22
2022-11-16T05:17:13.552Z,98427.47
2022-11-16T05:18:15.237Z,98431.34
2022-11-16T05:19:35.144Z,98434.78
2022-11-16T05:20:55.007Z,98427.72
2022-11-16T05:21:56.708Z,98437.81
2022-11-16T05:22:58.968Z,98432.38
2022-11-16T05:24:18.887Z,98430.13
2022-11-16T05:25:20.609Z,98440.41
2022-11-16T05:26:22.290Z,98437.19
2022-11-16T05:27:25.523Z,98441.66
2022-11-16T05:28:27.233Z,98439.59
2022-11-16T05:29:29.029Z,98434.81
2022-11-16T05:30:30.763Z,98439.59
2022-11-16T05:31:36.349Z,98434.16
2022-11-16T05:32:41.893Z,98436.38
2022-11-16T05:33:43.987Z,98435.63
2022-11-16T05:34:46.039Z,98450.97
2022-11-16T05:35:51.024Z,98420.41
2022-11-16T05:36:53.128Z,98440.72
2022-11-16T05:37:54.850Z,98447.75
2022-11-16T05:38:56.627Z,98446.78
2022-11-16T05:39:58.267Z,98449.03
2022-11-16T05:40:59.956Z,98455.88
2022-11-16T05:42:02.052Z,98451.81
2022-11-16T05:43:03.699Z,98449.66
2022-11-16T05:44:05.458Z,98453.06
2022-11-16T05:45:07.566Z,98442.16
2022-11-16T05:46:09.947Z,98450.28
2022-11-16T05:47:11.581Z,98441.41
2022-11-16T05:48:13.256Z,98445.88
2022-11-16T05:49:16.055Z,98445.88
2022-11-16T05:50:17.839Z,98453.56
2022-11-16T05:51:19.501Z,98462.84
2022-11-16T05:52:21.149Z,98458.84
2022-11-16T05:53:22.826Z,98451.00
2022-11-16T05:54:26.221Z,98453.22
2022-11-16T05:55:27.958Z,98442.09
2022-11-16T05:56:30.302Z,98450.22
2022-11-16T05:57:32.038Z,98453.47
2022-11-16T05:58:33.970Z,98451.66
2022-11-16T05:59:36.135Z,98453.28
2022-11-16T06:00:37.791Z,98452.91
2022-11-16T06:01:39.985Z,98439.97
2022-11-16T06:02:41.903Z,98442.78
2022-11-16T06:03:43.723Z,98450.06
2022-11-16T06:04:45.377Z,98445.44
2022-11-16T06:05:47.074Z,98442.25
2022-11-16T06:06:48.755Z,98442.66
2022-11-16T06:07:50.417Z,98436.81
2022-11-16T06:08:52.135Z,98428.34
2022-11-16T06:09:53.816Z,98440.50
2022-11-16T06:10:55.925Z,98436.91
2022-11-16T06:11:57.628Z,98434.09
2022-11-16T06:12:59.282Z,98433.69
2022-11-16T06:14:00.932Z,98438.38
2022-11-16T06:15:02.624Z,98424.44
2022-11-16T06:16:05.188Z,98430.91
2022-11-16T06:17:06.837Z,98426.09
2022-11-16T06:18:09.193Z,98429.75
2022-11-16T06:19:10.866Z,98424.91
2022-11-16T06:20:12.641Z,98422.09
2022-11-16T06:21:16.579Z,98417.25
2022-11-16T06:22:18.261Z,98419.69
2022-11-16T06:23:20.015Z,98410.00
2022-11-16T06:24:21.769Z,98417.72
2022-11-16T06:25:23.475Z,98406.41
2022-11-16T06:26:25.167Z,98411.69
2022-11-16T06:27:26.828Z,98407.22
2022-11-16T06:28:28.995Z,98405.25
2022-11-16T06:29:30.644Z,98402.41
2022-11-16T06:30:32.365Z,98414.53
2022-11-16T06:31:34.024Z,98409.72
2022-11-16T06:32:35.686Z,98405.88
2022-11-16T06:33:37.378Z,98409.72
2022-11-16T06:34:39.004Z,98415.16
2022-11-16T06:35:41.123Z,98404.69
2022-11-16T06:36:42.822Z,98411.16
2022-11-16T06:37:44.483Z,98417.63
2022-11-16T06:38:46.177Z,98409.94
2022-11-16T06:39:47.842Z,98414.81
2022-11-16T06:40:54.990Z,98413.78
2022-11-16T06:41:56.651Z,98416.00
2022-11-16T06:42:58.401Z,98414.00
2022-11-16T06:44:00.114Z,98409.72
2022-11-16T06:45:01.920Z,98410.72
2022-11-16T06:46:03.716Z,98415.75
2022-11-16T06:47:05.412Z,98410.47
2022-11-16T06:48:07.225Z,98422.13
2022-11-16T06:49:08.894Z,98413.56
2022-11-16T06:50:10.725Z,98415.88
2022-11-16T06:51:12.437Z,98423.28
2022-11-16T06:52:14.128Z,98419.28
2022-11-16T06:53:15.938Z,98419.13
2022-11-16T06:54:17.591Z,98413.16
2022-11-16T06:55:19.325Z,98414.88
2022-11-16T06:56:21.038Z,98414.84
2022-11-16T06:57:22.822Z,98417.19
2022-11-16T06:58:24.465Z,98409.50
2022-11-16T06:59:26.136Z,98417.31
2022-11-16T07:00:28.147Z,98409.16
2022-11-16T07:01:29.938Z,98407.13
2022-11-16T07:02:31.809Z,98411.19
2022-11-16T07:03:33.816Z,98400.69
2022-11-16T07:04:35.440Z,98410.38
2022-11-16T07:05:40.045Z,98409.31
2022-11-16T07:06:41.772Z,98403.72
2022-11-16T07:07:43.436Z,98402.28
2022-11-16T07:08:45.280Z,98405.13
2022-11-16T07:09:46.970Z,98401.94
2022-11-16T07:10:48.631Z,98396.56
2022-11-16T07:11:50.296Z,98401.50
2022-11-16T07:12:51.947Z,98397.53
2022-11-16T07:13:53.764Z,98395.03
2022-11-16T07:14:55.451Z,98401.88
2022-11-16T07:16:10.799Z,98389.78
2022-11-16T07:17:12.450Z,98395.69
2022-11-16T07:18:14.086Z,98397.06
2022-11-16T07:19:15.760Z,98391.47
2022-11-16T07:20:18.693Z,98393.34
2022-11-16T07:21:20.392Z,98385.44
2022-11-16T07:22:22.077Z,98396.44
2022-11-16T07:23:23.826Z,98388.22
2022-11-16T07:24:25.492Z,98400.34
2022-11-16T07:25:27.243Z,98396.13
2022-11-16T07:26:31.702Z,98400.97
2022-11-16T07:27:33.449Z,98397.53
2022-11-16T07:28:35.938Z,98404.22
2022-11-16T07:29:37.877Z,98395.47
2022-11-16T07:30:39.553Z,98397.91
2022-11-16T07:31:41.300Z,98385.41
2022-11-16T07:32:43.285Z,98387.81
2022-11-16T07:33:44.974Z,98393.97
2022-11-16T07:34:46.620Z,98385.41
2022-11-16T07:35:48.275Z,98392.88
2022-11-16T07:36:49.990Z,98390.16
2022-11-16T07:37:51.735Z,98383.41
2022-11-16T07:38:53.417Z,98389.50
2022-11-16T07:39:55.146Z,98387.31
2022-11-16T07:41:01.226Z,98383.25
2022-11-16T07:42:02.877Z,98384.25
2022-11-16T07:43:04.555Z,98388.22
2022-11-16T07:44:10.891Z,98389.19
2022-11-16T07:45:14.028Z,98382.69
2022-11-16T07:46:45.798Z,98377.25
2022-11-16T07:47:43.031Z,98379.81
2022-11-16T07:48:45.287Z,98377.56
2022-11-16T07:49:48.915Z,98378.53
2022-11-16T07:50:50.595Z,98370.25
2022-11-16T07:51:52.234Z,98367.88
2022-11-16T07:52:55.610Z,98375.31
2022-11-16T07:53:57.326Z,98372.53
2022-11-16T07:54:59.086Z,98374.03
2022-11-16T07:56:01.139Z,98376.50
2022-11-16T07:57:02.906Z,98370.66
2022-11-16T07:58:04.739Z,98374.28
2022-11-16T07:59:06.615Z,98376.75
2022-11-16T08:00:09.000Z,98379.41
2022-11-16T08:01:15.179Z,98383.34
2022-11-16T08:02:17.008Z,98379.75
2022-11-16T08:03:24.382Z,98372.28
2022-11-16T08:04:26.395Z,98370.13
2022-11-16T08:05:28.044Z,98375.03
2022-11-16T08:06:31.349Z,98373.66
2022-11-16T08:07:34.498Z,98375.13
2022-11-16T08:08:36.310Z,98368.59
2022-11-16T08:09:39.592Z,98377.09
2022-11-16T08:10:41.311Z,98375.09
2022-11-16T08:11:43.051Z,98368.81
2022-11-16T08:12:44.692Z,98365.41
2022-11-16T08:13:46.445Z,98371.00
2022-11-16T08:14:48.103Z,98374.69
2022-11-16T08:15:49.849Z,98372.19
2022-11-16T08:16:51.502Z,98373.66
2022-11-16T08:17:53.182Z,98360.09
2022-11-16T08:18:54.859Z,98372.44
2022-11-16T08:19:56.546Z,98364.38
2022-11-16T08:21:02.071Z,98368.25
2022-11-16T08:22:03.921Z,98358.19
2022-11-16T08:23:05.991Z,98357.19
2022-11-16T08:24:08.090Z,98359.94
2022-11-16T08:25:10.037Z,98362.84
2022-11-16T08:26:17.620Z,98361.69
2022-11-16T08:27:19.308Z,98356.50
2022-11-16T08:28:20.960Z,98354.66
2022-11-16T08:29:22.613Z,98351.25
2022-11-16T08:30:24.360Z,98353.50
2022-11-16T08:31:28.676Z,98357.38
2022-11-16T08:32:31.157Z,98341.03
2022-11-16T08:33:32.802Z,98347.19
2022-11-16T08:34:34.568Z,98346.19
2022-11-16T08:35:36.780Z,98342.75
2022-11-16T08:36:38.458Z,98343.94
2022-11-16T08:37:40.095Z,98337.78
2022-11-16T08:38:41.804Z,98327.03
2022-11-16T08:39:43.528Z,98332.97
2022-11-16T08:40:45.627Z,98322.31
2022-11-16T08:41:47.355Z,98328.06
2022-11-16T08:42:49.043Z,98318.84
2022-11-16T08:43:50.913Z,98327.63
2022-11-16T08:44:52.667Z,98321.41
2022-11-16T08:45:54.396Z,98319.38
2022-11-16T08:46:56.074Z,98321.44
2022-11-16T08:48:03.333Z,98302.31
2022-11-16T08:49:05.628Z,98317.47
2022-11-16T08:50:07.589Z,98310.13
2022-11-16T08:51:20.835Z,98309.66
2022-11-16T08:52:22.906Z,98309.81
2022-11-16T08:53:25.132Z,98314.41
2022-11-16T08:54:29.270Z,98311.50
2022-11-16T08:55:30.906Z,98302.97
2022-11-16T08:56:33.054Z,98299.28
2022-11-16T08:57:34.742Z,98293.91
2022-11-16T08:58:36.694Z,98295.03
2022-11-16T08:59:38.395Z,98294.72
2022-11-16T09:00:40.152Z,98296.94
2022-11-16T09:01:41.879Z,98296.44
2022-11-16T09:02:43.726Z,98297.41
2022-11-16T09:03:46.102Z,98300.09
2022-11-16T09:04:47.773Z,98301.69
2022-11-16T09:05:49.431Z,98295.97
2022-11-16T09:06:53.043Z,98294.63
2022-11-16T09:07:54.785Z,98291.22
2022-11-16T09:08:57.190Z,98299.13
2022-11-16T09:09:58.830Z,98291.22
2022-11-16T09:11:04.899Z,98297.47
2022-11-16T09:12:06.935Z,98291.59
2022-11-16T09:13:08.589Z,98285.03
2022-11-16T09:14:10.296Z,98290.31
2022-11-16T09:15:11.932Z,98284.44
2022-11-16T09:16:16.869Z,98288.94
2022-11-16T09:17:22.919Z,98286.81
2022-11-16T09:18:25.396Z,98285.41
2022-11-16T09:19:27.158Z,98288.66
2022-11-16T09:20:29.428Z,98286.50
2022-11-16T09:21:31.129Z,98281.72
2022-11-16T09:22:32.866Z,98287.03
2022-11-16T09:23:34.649Z,98278.41
2022-11-16T09:24:36.332Z,98277.75
2022-11-16T09:25:38.028Z,98272.75
2022-11-16T09:26:39.684Z,98266.63
2022-11-16T09:27:41.371Z,98268.88
2022-11-16T09:28:43.045Z,98260.44
2022-11-16T09:29:44.716Z,98261.03
2022-11-16T09:30:49.654Z,98268.22
2022-11-16T09:31:51.310Z,98261.03
2022-11-16T09:32:53.030Z,98272.13
2022-11-16T09:33:58.492Z,98258.00
2022-11-16T09:35:00.248Z,98250.00
2022-11-16T09:36:07.290Z,98249.91
2022-11-16T09:37:08.988Z,98247.31
2022-11-16T09:38:13.610Z,98242.94
2022-11-16T09:39:33.254Z,98244.13
2022-11-16T09:40:38.213Z,98236.34
2022-11-16T09:42:02.526Z,98237.34
2022-11-16T09:43:26.467Z,98240.91
2022-11-16T09:44:39.472Z,98230.47
2022-11-16T09:45:58.380Z,98216.66
2022-11-16T09:47:01.921Z,98230.81
2022-11-16T09:48:06.731Z,98235.56
2022-11-16T09:49:40.821Z,98234.44
2022-11-16T09:50:51.379Z,98228.22
2022-11-16T09:51:59.592Z,98222.16
2022-11-16T09:53:16.506Z,98211.00
2022-11-16T09:54:23.170Z,98210.34
2022-11-16T09:55:42.530Z,98205.25
2022-11-16T09:56:47.561Z,98208.56
2022-11-16T09:57:52.610Z,98198.09
2022-11-16T09:58:54.190Z,98199.66
2022-11-16T10:00:02.192Z,98196.53
2022-11-16T10:01:14.349Z,98193.28
2022-11-16T10:02:23.969Z,98191.94
2022-11-16T10:03:27.762Z,98196.31
2022-11-16T10:05:07.878Z,98184.53
2022-11-16T10:06:21.464Z,98185.53
2022-11-16T10:07:41.858Z,98179.66
2022-11-16T10:08:45.682Z,98176.31
2022-11-16T10:09:47.979Z,98170.25
2022-11-16T10:11:23.332Z,98178.47
2022-11-16T10:12:38.094Z,98174.22
2022-11-16T10:13:50.473Z,98171.44
2022-11-16T10:15:23.676Z,98162.06
2022-11-16T10:17:01.229Z,98163.56
2022-11-16T10:18:40.416Z,98153.53
2022-11-16T10:20:20.423Z,98150.59
2022-11-16T10:21:25.848Z,98146.28
2022-11-16T10:22:30.417Z,98145.31
2022-11-16T10:23:37.940Z,98144.63
2022-11-16T10:24:57.931Z,98143.16
2022-11-16T10:26:11.601Z,98148.03
2022-11-16T10:27:39.455Z,98142.31
2022-11-16T10:28:43.992Z,98141.97
2022-11-16T10:29:57.347Z,98148.31
2022-11-16T10:31:40.191Z,98136.44
2022-11-16T10:32:53.071Z,98131.34
2022-11-16T10:33:58.764Z,98133.34
2022-11-16T10:35:16.063Z,98137.25
2022-11-16T10:36:19.396Z,98124.16
2022-11-16T10:37:23.939Z,98126.22
2022-11-16T10:38:30.438Z,98118.63
2022-11-16T10:39:34.167Z,98127.69
2022-11-16T10:40:37.758Z,98114.19
2022-11-16T10:41:50.561Z,98124.31
2022-11-16T10:43:00.452Z,98121.81
2022-11-16T10:44:02.762Z,98115.28
2022-11-16T10:45:12.006Z,98114.66
2022-11-16T10:46:31.716Z,98109.56
2022-11-16T10:47:42.804Z,98097.34
2022-11-16T10:49:02.537Z,98105.44
2022-11-16T10:50:47.560Z,98099.56
2022-11-16T10:51:49.261Z,98096.38
2022-11-16T10:52:50.913Z,98092.41
2022-11-16T10:53:53.979Z,98095.44
2022-11-16T10:54:55.696Z,98086.19
2022-11-16T10:56:03.291Z,98088.31
2022-11-16T10:57:14.055Z,98086.31
2022-11-16T10:58:15.792Z,98089.97
2022-11-16T10:59:20.582Z,98073.94
2022-11-16T11:00:49.297Z,98087.94
2022-11-16T11:01:56.262Z,98082.78
2022-11-16T11:02:57.920Z,98084.44
2022-11-16T11:04:21.336Z,98076.13
2022-11-16T11:05:23.092Z,98073.75
2022-11-16T11:06:26.659Z,98068.16
2022-11-16T11:07:34.401Z,98067.00
2022-11-16T11:08:36.118Z,98076.16
2022-11-16T11:09:38.752Z,98070.09
2022-11-16T11:10:42.183Z,98071.25
2022-11-16T11:12:24.046Z,98067.66
2022-11-16T11:13:26.931Z,98065.97
2022-11-16T11:14:28.631Z,98064.34
2022-11-16T11:15:30.328Z,98070.66
2022-11-16T11:16:32.177Z,98067.63
2022-11-16T11:17:36.121Z,98069.72
2022-11-16T11:18:37.879Z,98058.50
2022-11-16T11:19:39.551Z,98061.75
2022-11-16T11:20:45.099Z,98064.94
2022-11-16T11:21:47.584Z,98059.28
2022-11-16T11:22:59.163Z,98055.06
2022-11-16T11:24:37.431Z,98057.44
2022-11-16T11:25:27.990Z,98045.06
2022-11-16T11:26:37.204Z,98057.78
2022-11-16T11:27:39.733Z,98048.78
2022-11-16T11:28:48.073Z,98046.03
2022-11-16T11:29:55.510Z,98050.34
2022-11-16T11:31:11.688Z,98042.53
2022-11-16T11:32:22.453Z,98045.28
2022-11-16T11:33:38.117Z,98045.53
2022-11-16T11:34:43.784Z,98044.06
2022-11-16T11:35:45.473Z,98038.69
2022-11-16T11:36:55.319Z,98035.03
2022-11-16T11:38:07.457Z,98038.56
2022-11-16T11:39:12.648Z,98031.91
2022-11-16T11:40:23.384Z,98042.06
2022-11-16T11:41:25.959Z,98036.72
2022-11-16T11:42:28.054Z,98031.13
2022-11-16T11:43:29.901Z,98030.84
2022-11-16T11:44:38.697Z,98029.88
2022-11-16T11:45:49.625Z,98038.97
2022-11-16T11:49:01.639Z,98030.47
2022-11-16T11:50:14.155Z,98030.72
2022-11-16T11:51:25.558Z,98026.75
2022-11-16T11:52:44.633Z,98025.69
2022-11-16T11:53:59.329Z,98023.28
2022-11-16T11:55:05.737Z,98020.88
2022-11-16T11:56:11.733Z,98017.69
2022-11-16T11:57:20.734Z,98024.06
2022-11-16T11:58:28.376Z,98019.50
2022-11-16T11:59:30.394Z,98029.38
2022-11-16T12:00:49.356Z,98020.06
2022-11-16T12:02:25.707Z,98019.81
2022-11-16T12:03:45.389Z,98018.19
2022-11-16T12:05:08.320Z,98018.22
2022-11-16T12:06:22.888Z,98021.16
2022-11-16T12:07:48.973Z,98022.72
2022-11-16T12:09:09.017Z,98020.31
2022-11-16T12:10:22.568Z,98017.66
2022-11-16T12:11:39.437Z,98012.06
2022-11-16T12:13:02.514Z,98015.00
2022-11-16T12:14:29.624Z,98008.88
2022-11-16T12:15:52.409Z,98003.25
2022-11-16T12:17:36.453Z,98000.06
2022-11-16T12:19:10.281Z,97990.75
2022-11-16T12:20:26.598Z,97987.28
2022-11-16T12:21:41.362Z,97984.91
2022-11-16T12:23:24.879Z,97978.47
2022-11-16T12:24:26.478Z,97982.47
2022-11-16T12:25:39.079Z,97977.44
2022-11-16T12:26:41.363Z,97977.69
2022-11-16T12:28:10.803Z,97979.81
2022-11-16T12:29:25.875Z,97978.50
2022-11-16T12:30:27.972Z,97972.63
2022-11-16T12:31:41.962Z,97975.03
2022-11-16T12:32:53.068Z,97977.16
2022-11-16T12:34:34.398Z,97976.34
2022-11-16T12:35:49.269Z,97978.50
2022-11-16T12:37:11.086Z,97972.38
2022-11-16T12:38:26.650Z,97974.50
2022-11-16T12:39:34.506Z,97969.16
2022-11-16T12:40:41.350Z,97965.97
2022-11-16T12:42:13.724Z,97970.50
2022-11-16T12:43:21.280Z,97970.50
2022-11-16T12:44:57.696Z,97971.84
2022-11-16T12:46:20.577Z,97969.69
2022-11-16T12:47:55.795Z,97964.38
2022-11-16T12:49:19.029Z,97970.25
2022-11-16T12:50:45.008Z,97972.34
2022-11-16T12:52:12.289Z,97963.56
2022-11-16T12:53:16.617Z,97963.84
2022-11-16T12:54:52.445Z,97960.91
2022-11-16T12:56:44.562Z,97954.25
2022-11-16T12:58:02.632Z,97955.31
2022-11-16T12:59:36.652Z,97953.16
2022-11-16T13:01:10.640Z,97936.41
2022-11-16T13:02:41.345Z,97949.72
2022-11-16T13:03:49.229Z,97948.94
2022-11-16T13:05:03.941Z,97946.78
2022-11-16T13:06:15.275Z,97951.84
2022-11-16T13:07:30.204Z,97943.06
2022-11-16T13:08:41.032Z,97951.56
2022-11-16T13:10:00.689Z,97947.84
2022-11-16T13:11:17.442Z,97955.31